Jamestwn, North Dakota
Current Conditions -  °F | °C
As of 3:56 AM on Sunday 26 Oct 2014 (Local Time) from KJMS Reporting Station
Clear Clear  
Wind Chill: 33°   Ceiling: Unl
Heat Index: 39°   Visibility: 10mi
Dew Point: 30°   Wind: 9mph
Humidity: 70%   Direction: 140°SE
Pressure: 29.88"   Gusts: NA
Location:  46.9109°N, 98.7082°W
Report Text: KJMS 260856Z AUTO 14008KT 10SM CLR 04/M01 A2988 RMK AO2 SLP126 T00391011 58022
Loading
Personal Weather Stations






























Interactive Weather Map
Tropical Storm Tracking
New forecast layout! Learn more

10-Day Weather Forecast

Advertisements
Track Severe Weather on mobile